sensor_id;sensor_type;location;lat;lon;timestamp;P1;durP1;ratioP1;P2;durP2;ratioP2
5167;SDS011;2603;48.918;8.980;2023-08-24T00:01:11;7.90;;;5.53;;
5167;SDS011;2603;48.918;8.980;2023-08-24T00:03:39;7.10;;;4.47;;
5167;SDS011;2603;48.918;8.980;2023-08-24T00:06:06;6.40;;;5.23;;
5167;SDS011;2603;48.918;8.980;2023-08-24T00:08:32;7.40;;;4.50;;
5167;SDS011;2603;48.918;8.980;2023-08-24T00:10:59;13.10;;;5.70;;
5167;SDS011;2603;48.918;8.980;2023-08-24T00:13:26;7.17;;;4.90;;
5167;SDS011;2603;48.918;8.980;2023-08-24T00:15:54;8.17;;;5.47;;
5167;SDS011;2603;48.918;8.980;2023-08-24T00:18:20;12.50;;;4.80;;
5167;SDS011;2603;48.918;8.980;2023-08-24T00:20:47;10.53;;;5.57;;
5167;SDS011;2603;48.918;8.980;2023-08-24T00:23:14;11.60;;;5.30;;
5167;SDS011;2603;48.918;8.980;2023-08-24T00:25:41;14.03;;;6.03;;
5167;SDS011;2603;48.918;8.980;2023-08-24T00:28:08;6.87;;;4.20;;
5167;SDS011;2603;48.918;8.980;2023-08-24T00:30:34;8.90;;;5.50;;
5167;SDS011;2603;48.918;8.980;2023-08-24T00:33:03;18.70;;;5.30;;
5167;SDS011;2603;48.918;8.980;2023-08-24T00:35:30;12.70;;;5.37;;
5167;SDS011;2603;48.918;8.980;2023-08-24T00:37:56;6.63;;;4.80;;
5167;SDS011;2603;48.918;8.980;2023-08-24T00:40:23;10.07;;;5.47;;
5167;SDS011;2603;48.918;8.980;2023-08-24T00:42:50;6.60;;;4.50;;
5167;SDS011;2603;48.918;8.980;2023-08-24T00:45:17;17.13;;;5.03;;
5167;SDS011;2603;48.918;8.980;2023-08-24T00:47:45;10.67;;;5.70;;
5167;SDS011;2603;48.918;8.980;2023-08-24T00:50:14;9.80;;;5.20;;
5167;SDS011;2603;48.918;8.980;2023-08-24T00:52:42;15.83;;;5.80;;
5167;SDS011;2603;48.918;8.980;2023-08-24T00:55:09;11.97;;;5.20;;
5167;SDS011;2603;48.918;8.980;2023-08-24T00:57:37;11.40;;;6.00;;
5167;SDS011;2603;48.918;8.980;2023-08-24T01:00:04;9.33;;;5.87;;
5167;SDS011;2603;48.918;8.980;2023-08-24T01:02:35;9.43;;;5.70;;
5167;SDS011;2603;48.918;8.980;2023-08-24T01:05:02;12.63;;;5.40;;
5167;SDS011;2603;48.918;8.980;2023-08-24T01:07:31;9.67;;;5.17;;
5167;SDS011;2603;48.918;8.980;2023-08-24T01:09:57;10.93;;;6.20;;
5167;SDS011;2603;48.918;8.980;2023-08-24T01:12:25;8.00;;;5.90;;
5167;SDS011;2603;48.918;8.980;2023-08-24T01:14:57;11.90;;;5.63;;
5167;SDS011;2603;48.918;8.980;2023-08-24T01:17:26;9.67;;;5.33;;
5167;SDS011;2603;48.918;8.980;2023-08-24T01:19:54;8.87;;;6.20;;
5167;SDS011;2603;48.918;8.980;2023-08-24T01:22:23;16.80;;;6.73;;
5167;SDS011;2603;48.918;8.980;2023-08-24T01:25:00;16.27;;;5.80;;
5167;SDS011;2603;48.918;8.980;2023-08-24T01:27:33;13.07;;;5.50;;
5167;SDS011;2603;48.918;8.980;2023-08-24T01:30:01;8.03;;;4.50;;
5167;SDS011;2603;48.918;8.980;2023-08-24T01:32:29;8.23;;;5.10;;
5167;SDS011;2603;48.918;8.980;2023-08-24T01:34:56;7.10;;;4.83;;
5167;SDS011;2603;48.918;8.980;2023-08-24T01:37:23;8.30;;;5.77;;
5167;SDS011;2603;48.918;8.980;2023-08-24T01:39:53;10.40;;;5.97;;
5167;SDS011;2603;48.918;8.980;2023-08-24T01:42:26;7.83;;;6.20;;
5167;SDS011;2603;48.918;8.980;2023-08-24T01:44:56;8.93;;;6.73;;
5167;SDS011;2603;48.918;8.980;2023-08-24T01:47:23;6.83;;;5.63;;
5167;SDS011;2603;48.918;8.980;2023-08-24T01:49:51;8.77;;;6.10;;
5167;SDS011;2603;48.918;8.980;2023-08-24T01:52:17;6.60;;;5.00;;
5167;SDS011;2603;48.918;8.980;2023-08-24T01:54:45;11.40;;;6.27;;
5167;SDS011;2603;48.918;8.980;2023-08-24T01:57:11;7.43;;;5.40;;
5167;SDS011;2603;48.918;8.980;2023-08-24T01:59:38;8.83;;;4.90;;
5167;SDS011;2603;48.918;8.980;2023-08-24T02:02:06;6.53;;;4.70;;
5167;SDS011;2603;48.918;8.980;2023-08-24T02:04:32;11.30;;;5.50;;
5167;SDS011;2603;48.918;8.980;2023-08-24T02:06:59;6.63;;;4.33;;
5167;SDS011;2603;48.918;8.980;2023-08-24T02:09:26;10.53;;;5.10;;
5167;SDS011;2603;48.918;8.980;2023-08-24T02:11:52;11.10;;;4.90;;
5167;SDS011;2603;48.918;8.980;2023-08-24T02:14:19;6.80;;;4.90;;
5167;SDS011;2603;48.918;8.980;2023-08-24T02:16:45;7.27;;;4.90;;
5167;SDS011;2603;48.918;8.980;2023-08-24T02:19:13;9.00;;;5.10;;
5167;SDS011;2603;48.918;8.980;2023-08-24T02:21:40;6.90;;;4.70;;
5167;SDS011;2603;48.918;8.980;2023-08-24T02:24:06;11.33;;;5.67;;
5167;SDS011;2603;48.918;8.980;2023-08-24T02:26:33;6.37;;;4.97;;
5167;SDS011;2603;48.918;8.980;2023-08-24T02:28:59;6.47;;;5.07;;
5167;SDS011;2603;48.918;8.980;2023-08-24T02:31:26;8.53;;;5.00;;
5167;SDS011;2603;48.918;8.980;2023-08-24T02:33:54;11.70;;;5.20;;
5167;SDS011;2603;48.918;8.980;2023-08-24T02:36:22;7.83;;;6.13;;
5167;SDS011;2603;48.918;8.980;2023-08-24T02:38:49;11.80;;;4.80;;
5167;SDS011;2603;48.918;8.980;2023-08-24T02:41:17;9.40;;;5.37;;
5167;SDS011;2603;48.918;8.980;2023-08-24T02:43:43;9.90;;;5.80;;
5167;SDS011;2603;48.918;8.980;2023-08-24T02:46:10;8.70;;;4.70;;
5167;SDS011;2603;48.918;8.980;2023-08-24T02:48:37;8.70;;;5.10;;
5167;SDS011;2603;48.918;8.980;2023-08-24T02:51:04;9.83;;;5.47;;
5167;SDS011;2603;48.918;8.980;2023-08-24T02:53:32;16.63;;;6.37;;
5167;SDS011;2603;48.918;8.980;2023-08-24T02:55:59;9.83;;;5.00;;
5167;SDS011;2603;48.918;8.980;2023-08-24T02:58:26;9.00;;;6.00;;
5167;SDS011;2603;48.918;8.980;2023-08-24T03:00:53;8.63;;;5.30;;
5167;SDS011;2603;48.918;8.980;2023-08-24T03:03:20;10.23;;;5.60;;
5167;SDS011;2603;48.918;8.980;2023-08-24T03:05:57;12.23;;;5.67;;
5167;SDS011;2603;48.918;8.980;2023-08-24T03:08:27;8.17;;;5.17;;
5167;SDS011;2603;48.918;8.980;2023-08-24T03:10:56;8.60;;;5.23;;
5167;SDS011;2603;48.918;8.980;2023-08-24T03:13:24;10.20;;;5.43;;
5167;SDS011;2603;48.918;8.980;2023-08-24T03:15:52;8.37;;;5.30;;
5167;SDS011;2603;48.918;8.980;2023-08-24T03:18:19;10.47;;;5.83;;
5167;SDS011;2603;48.918;8.980;2023-08-24T03:20:46;10.30;;;5.80;;
5167;SDS011;2603;48.918;8.980;2023-08-24T03:23:14;12.60;;;5.53;;
5167;SDS011;2603;48.918;8.980;2023-08-24T03:25:41;9.20;;;6.43;;
5167;SDS011;2603;48.918;8.980;2023-08-24T03:28:10;11.57;;;6.43;;
5167;SDS011;2603;48.918;8.980;2023-08-24T03:30:38;10.33;;;6.13;;
5167;SDS011;2603;48.918;8.980;2023-08-24T03:33:06;13.73;;;6.13;;
5167;SDS011;2603;48.918;8.980;2023-08-24T03:35:33;9.37;;;6.13;;
5167;SDS011;2603;48.918;8.980;2023-08-24T03:38:00;10.70;;;5.97;;
5167;SDS011;2603;48.918;8.980;2023-08-24T03:40:28;8.43;;;5.97;;
5167;SDS011;2603;48.918;8.980;2023-08-24T03:42:55;16.83;;;6.37;;
5167;SDS011;2603;48.918;8.980;2023-08-24T03:45:23;9.20;;;5.93;;
5167;SDS011;2603;48.918;8.980;2023-08-24T03:47:50;7.43;;;5.83;;
5167;SDS011;2603;48.918;8.980;2023-08-24T03:50:17;8.90;;;6.17;;
5167;SDS011;2603;48.918;8.980;2023-08-24T03:52:43;6.40;;;4.83;;
5167;SDS011;2603;48.918;8.980;2023-08-24T03:55:10;10.80;;;4.63;;
5167;SDS011;2603;48.918;8.980;2023-08-24T03:57:37;10.20;;;5.83;;
5167;SDS011;2603;48.918;8.980;2023-08-24T04:00:04;12.60;;;5.70;;
5167;SDS011;2603;48.918;8.980;2023-08-24T04:02:40;9.00;;;5.77;;
5167;SDS011;2603;48.918;8.980;2023-08-24T04:05:10;14.40;;;6.80;;
5167;SDS011;2603;48.918;8.980;2023-08-24T04:07:37;8.27;;;5.70;;
5167;SDS011;2603;48.918;8.980;2023-08-24T04:10:05;7.83;;;6.00;;
5167;SDS011;2603;48.918;8.980;2023-08-24T04:12:32;8.83;;;6.70;;
5167;SDS011;2603;48.918;8.980;2023-08-24T04:14:59;9.27;;;6.47;;
5167;SDS011;2603;48.918;8.980;2023-08-24T04:17:27;9.60;;;7.63;;
5167;SDS011;2603;48.918;8.980;2023-08-24T04:19:55;11.17;;;6.60;;
5167;SDS011;2603;48.918;8.980;2023-08-24T04:22:21;11.80;;;7.17;;
5167;SDS011;2603;48.918;8.980;2023-08-24T04:24:48;12.13;;;7.10;;
5167;SDS011;2603;48.918;8.980;2023-08-24T04:27:14;12.40;;;8.77;;
5167;SDS011;2603;48.918;8.980;2023-08-24T04:29:41;15.43;;;8.63;;
5167;SDS011;2603;48.918;8.980;2023-08-24T04:32:08;10.27;;;6.60;;
5167;SDS011;2603;48.918;8.980;2023-08-24T04:34:34;9.97;;;7.13;;
5167;SDS011;2603;48.918;8.980;2023-08-24T04:37:02;10.33;;;7.33;;
5167;SDS011;2603;48.918;8.980;2023-08-24T04:39:29;10.47;;;8.07;;
5167;SDS011;2603;48.918;8.980;2023-08-24T04:41:55;14.07;;;8.10;;
5167;SDS011;2603;48.918;8.980;2023-08-24T04:44:22;12.00;;;7.70;;
5167;SDS011;2603;48.918;8.980;2023-08-24T04:46:49;11.33;;;7.43;;
5167;SDS011;2603;48.918;8.980;2023-08-24T04:49:15;16.00;;;7.03;;
5167;SDS011;2603;48.918;8.980;2023-08-24T04:51:42;11.03;;;7.00;;
5167;SDS011;2603;48.918;8.980;2023-08-24T04:54:09;11.40;;;6.70;;
5167;SDS011;2603;48.918;8.980;2023-08-24T04:56:36;10.63;;;6.70;;
5167;SDS011;2603;48.918;8.980;2023-08-24T04:59:02;11.80;;;7.43;;
5167;SDS011;2603;48.918;8.980;2023-08-24T05:01:29;11.03;;;6.90;;
5167;SDS011;2603;48.918;8.980;2023-08-24T05:03:56;10.27;;;6.70;;
5167;SDS011;2603;48.918;8.980;2023-08-24T05:06:23;12.00;;;7.33;;
5167;SDS011;2603;48.918;8.980;2023-08-24T05:08:49;9.47;;;7.37;;
5167;SDS011;2603;48.918;8.980;2023-08-24T05:11:18;9.50;;;7.10;;
5167;SDS011;2603;48.918;8.980;2023-08-24T05:13:45;13.30;;;7.00;;
5167;SDS011;2603;48.918;8.980;2023-08-24T05:16:12;10.43;;;7.87;;
5167;SDS011;2603;48.918;8.980;2023-08-24T05:18:39;20.20;;;7.60;;
5167;SDS011;2603;48.918;8.980;2023-08-24T05:21:06;8.57;;;6.40;;
5167;SDS011;2603;48.918;8.980;2023-08-24T05:23:33;9.90;;;6.00;;
5167;SDS011;2603;48.918;8.980;2023-08-24T05:26:00;8.37;;;6.23;;
5167;SDS011;2603;48.918;8.980;2023-08-24T05:28:29;11.10;;;6.43;;
5167;SDS011;2603;48.918;8.980;2023-08-24T05:30:56;12.00;;;7.67;;
5167;SDS011;2603;48.918;8.980;2023-08-24T05:33:23;11.93;;;6.13;;
5167;SDS011;2603;48.918;8.980;2023-08-24T05:35:51;10.10;;;6.40;;
5167;SDS011;2603;48.918;8.980;2023-08-24T05:38:17;11.57;;;6.97;;
5167;SDS011;2603;48.918;8.980;2023-08-24T05:40:46;11.43;;;7.47;;
5167;SDS011;2603;48.918;8.980;2023-08-24T05:43:13;15.10;;;9.00;;
5167;SDS011;2603;48.918;8.980;2023-08-24T05:45:41;9.70;;;7.20;;
5167;SDS011;2603;48.918;8.980;2023-08-24T05:48:09;18.70;;;7.90;;
5167;SDS011;2603;48.918;8.980;2023-08-24T05:50:36;18.03;;;13.33;;
5167;SDS011;2603;48.918;8.980;2023-08-24T05:53:03;23.93;;;14.03;;
5167;SDS011;2603;48.918;8.980;2023-08-24T05:55:30;15.97;;;7.70;;
5167;SDS011;2603;48.918;8.980;2023-08-24T05:57:57;14.30;;;7.57;;
5167;SDS011;2603;48.918;8.980;2023-08-24T06:00:26;9.80;;;6.60;;
5167;SDS011;2603;48.918;8.980;2023-08-24T06:02:54;11.80;;;7.90;;
5167;SDS011;2603;48.918;8.980;2023-08-24T06:05:20;8.10;;;6.63;;
5167;SDS011;2603;48.918;8.980;2023-08-24T06:07:48;10.83;;;6.87;;
5167;SDS011;2603;48.918;8.980;2023-08-24T06:10:14;11.90;;;7.10;;
5167;SDS011;2603;48.918;8.980;2023-08-24T06:12:41;17.00;;;6.57;;
5167;SDS011;2603;48.918;8.980;2023-08-24T06:15:08;11.03;;;6.70;;
5167;SDS011;2603;48.918;8.980;2023-08-24T06:17:37;12.40;;;6.43;;
5167;SDS011;2603;48.918;8.980;2023-08-24T06:20:06;13.73;;;7.10;;
5167;SDS011;2603;48.918;8.980;2023-08-24T06:22:35;15.50;;;8.17;;
5167;SDS011;2603;48.918;8.980;2023-08-24T06:25:02;9.70;;;6.83;;
5167;SDS011;2603;48.918;8.980;2023-08-24T06:27:30;13.70;;;6.27;;
5167;SDS011;2603;48.918;8.980;2023-08-24T06:29:56;9.93;;;6.43;;
5167;SDS011;2603;48.918;8.980;2023-08-24T06:32:23;9.13;;;7.67;;
5167;SDS011;2603;48.918;8.980;2023-08-24T06:34:49;9.00;;;6.37;;
5167;SDS011;2603;48.918;8.980;2023-08-24T06:37:18;20.83;;;7.40;;
5167;SDS011;2603;48.918;8.980;2023-08-24T06:39:44;11.10;;;6.80;;
5167;SDS011;2603;48.918;8.980;2023-08-24T06:42:11;9.23;;;6.80;;
5167;SDS011;2603;48.918;8.980;2023-08-24T06:44:37;14.23;;;7.00;;
5167;SDS011;2603;48.918;8.980;2023-08-24T06:47:04;15.57;;;8.43;;
5167;SDS011;2603;48.918;8.980;2023-08-24T06:49:30;10.93;;;8.20;;
5167;SDS011;2603;48.918;8.980;2023-08-24T06:51:57;27.43;;;18.23;;
5167;SDS011;2603;48.918;8.980;2023-08-24T06:54:25;16.90;;;7.80;;
5167;SDS011;2603;48.918;8.980;2023-08-24T06:56:51;16.70;;;9.37;;
5167;SDS011;2603;48.918;8.980;2023-08-24T06:59:18;15.87;;;10.37;;
5167;SDS011;2603;48.918;8.980;2023-08-24T07:01:44;11.30;;;7.70;;
5167;SDS011;2603;48.918;8.980;2023-08-24T07:04:12;20.40;;;8.03;;
5167;SDS011;2603;48.918;8.980;2023-08-24T07:06:38;13.13;;;8.10;;
5167;SDS011;2603;48.918;8.980;2023-08-24T07:09:05;17.63;;;9.17;;
5167;SDS011;2603;48.918;8.980;2023-08-24T07:11:34;11.70;;;7.93;;
5167;SDS011;2603;48.918;8.980;2023-08-24T07:14:00;13.20;;;7.90;;
5167;SDS011;2603;48.918;8.980;2023-08-24T07:16:27;16.80;;;7.50;;
5167;SDS011;2603;48.918;8.980;2023-08-24T07:18:54;12.70;;;7.37;;
5167;SDS011;2603;48.918;8.980;2023-08-24T07:21:20;11.70;;;7.37;;
5167;SDS011;2603;48.918;8.980;2023-08-24T07:23:47;10.17;;;7.40;;
5167;SDS011;2603;48.918;8.980;2023-08-24T07:26:13;10.67;;;7.30;;
5167;SDS011;2603;48.918;8.980;2023-08-24T07:28:41;13.40;;;6.80;;
5167;SDS011;2603;48.918;8.980;2023-08-24T07:31:08;11.50;;;6.37;;
5167;SDS011;2603;48.918;8.980;2023-08-24T07:33:35;8.67;;;5.40;;
5167;SDS011;2603;48.918;8.980;2023-08-24T07:36:02;7.70;;;4.83;;
5167;SDS011;2603;48.918;8.980;2023-08-24T07:38:29;8.37;;;5.30;;
5167;SDS011;2603;48.918;8.980;2023-08-24T07:40:56;9.57;;;5.47;;
5167;SDS011;2603;48.918;8.980;2023-08-24T07:43:23;7.13;;;4.67;;
5167;SDS011;2603;48.918;8.980;2023-08-24T07:45:51;11.40;;;4.97;;
5167;SDS011;2603;48.918;8.980;2023-08-24T07:48:18;8.93;;;4.63;;
5167;SDS011;2603;48.918;8.980;2023-08-24T07:50:44;6.50;;;4.00;;
5167;SDS011;2603;48.918;8.980;2023-08-24T07:53:11;9.93;;;4.30;;
5167;SDS011;2603;48.918;8.980;2023-08-24T07:55:37;7.07;;;3.37;;
5167;SDS011;2603;48.918;8.980;2023-08-24T07:58:04;8.87;;;4.53;;
5167;SDS011;2603;48.918;8.980;2023-08-24T08:00:31;5.40;;;3.83;;
5167;SDS011;2603;48.918;8.980;2023-08-24T08:03:00;9.80;;;3.60;;
5167;SDS011;2603;48.918;8.980;2023-08-24T08:05:26;7.90;;;3.53;;
5167;SDS011;2603;48.918;8.980;2023-08-24T08:07:53;12.00;;;4.50;;
5167;SDS011;2603;48.918;8.980;2023-08-24T08:10:19;6.83;;;3.33;;
5167;SDS011;2603;48.918;8.980;2023-08-24T08:12:46;8.00;;;4.77;;
5167;SDS011;2603;48.918;8.980;2023-08-24T08:15:13;6.33;;;3.30;;
5167;SDS011;2603;48.918;8.980;2023-08-24T08:17:39;4.33;;;2.90;;
5167;SDS011;2603;48.918;8.980;2023-08-24T08:20:08;6.83;;;3.00;;
5167;SDS011;2603;48.918;8.980;2023-08-24T08:22:37;6.87;;;3.77;;
5167;SDS011;2603;48.918;8.980;2023-08-24T08:25:04;4.33;;;3.20;;
5167;SDS011;2603;48.918;8.980;2023-08-24T08:27:31;6.60;;;3.57;;
5167;SDS011;2603;48.918;8.980;2023-08-24T08:29:58;5.57;;;3.50;;
5167;SDS011;2603;48.918;8.980;2023-08-24T08:32:24;15.10;;;4.10;;
5167;SDS011;2603;48.918;8.980;2023-08-24T08:34:52;11.87;;;4.43;;
5167;SDS011;2603;48.918;8.980;2023-08-24T08:37:21;5.97;;;3.30;;
5167;SDS011;2603;48.918;8.980;2023-08-24T08:39:47;7.70;;;3.20;;
5167;SDS011;2603;48.918;8.980;2023-08-24T08:42:14;9.10;;;3.27;;
5167;SDS011;2603;48.918;8.980;2023-08-24T08:44:40;8.23;;;3.70;;
5167;SDS011;2603;48.918;8.980;2023-08-24T08:47:07;8.30;;;3.90;;
5167;SDS011;2603;48.918;8.980;2023-08-24T08:49:36;5.80;;;3.10;;
5167;SDS011;2603;48.918;8.980;2023-08-24T08:52:03;8.77;;;3.00;;
5167;SDS011;2603;48.918;8.980;2023-08-24T08:56:59;4.77;;;3.30;;
5167;SDS011;2603;48.918;8.980;2023-08-24T08:59:26;5.43;;;3.10;;
5167;SDS011;2603;48.918;8.980;2023-08-24T09:01:55;8.57;;;3.70;;
5167;SDS011;2603;48.918;8.980;2023-08-24T09:04:22;6.37;;;2.87;;
5167;SDS011;2603;48.918;8.980;2023-08-24T09:06:50;12.83;;;3.10;;
5167;SDS011;2603;48.918;8.980;2023-08-24T09:09:16;4.10;;;2.53;;
5167;SDS011;2603;48.918;8.980;2023-08-24T09:11:44;5.53;;;3.23;;
5167;SDS011;2603;48.918;8.980;2023-08-24T09:14:13;6.97;;;3.30;;
5167;SDS011;2603;48.918;8.980;2023-08-24T09:16:39;6.97;;;3.13;;
5167;SDS011;2603;48.918;8.980;2023-08-24T09:19:10;6.03;;;3.00;;
5167;SDS011;2603;48.918;8.980;2023-08-24T09:21:37;7.27;;;3.10;;
5167;SDS011;2603;48.918;8.980;2023-08-24T09:24:05;7.20;;;2.80;;
5167;SDS011;2603;48.918;8.980;2023-08-24T09:26:33;4.33;;;2.80;;
5167;SDS011;2603;48.918;8.980;2023-08-24T09:29:10;9.50;;;2.87;;
5167;SDS011;2603;48.918;8.980;2023-08-24T09:31:38;5.33;;;2.83;;
5167;SDS011;2603;48.918;8.980;2023-08-24T09:34:05;8.93;;;3.00;;
5167;SDS011;2603;48.918;8.980;2023-08-24T09:36:32;9.67;;;3.90;;
5167;SDS011;2603;48.918;8.980;2023-08-24T09:38:59;7.23;;;3.13;;
5167;SDS011;2603;48.918;8.980;2023-08-24T09:41:36;7.50;;;2.93;;
5167;SDS011;2603;48.918;8.980;2023-08-24T09:44:03;9.30;;;3.10;;
5167;SDS011;2603;48.918;8.980;2023-08-24T09:46:31;8.10;;;3.20;;
5167;SDS011;2603;48.918;8.980;2023-08-24T09:48:58;10.50;;;2.87;;
5167;SDS011;2603;48.918;8.980;2023-08-24T09:51:26;9.73;;;3.07;;
5167;SDS011;2603;48.918;8.980;2023-08-24T09:53:54;9.60;;;3.07;;
5167;SDS011;2603;48.918;8.980;2023-08-24T09:56:23;14.13;;;3.23;;
5167;SDS011;2603;48.918;8.980;2023-08-24T09:58:52;7.67;;;3.63;;
5167;SDS011;2603;48.918;8.980;2023-08-24T10:01:20;10.80;;;3.70;;
5167;SDS011;2603;48.918;8.980;2023-08-24T10:03:51;5.87;;;2.83;;
5167;SDS011;2603;48.918;8.980;2023-08-24T10:06:28;8.20;;;3.23;;
5167;SDS011;2603;48.918;8.980;2023-08-24T10:08:57;9.97;;;3.23;;
5167;SDS011;2603;48.918;8.980;2023-08-24T10:11:26;7.87;;;3.40;;
5167;SDS011;2603;48.918;8.980;2023-08-24T10:13:57;6.40;;;3.83;;
5167;SDS011;2603;48.918;8.980;2023-08-24T10:16:25;7.73;;;2.77;;
5167;SDS011;2603;48.918;8.980;2023-08-24T10:18:54;8.60;;;3.30;;
5167;SDS011;2603;48.918;8.980;2023-08-24T10:21:22;12.07;;;3.40;;
5167;SDS011;2603;48.918;8.980;2023-08-24T10:23:50;5.87;;;3.47;;
5167;SDS011;2603;48.918;8.980;2023-08-24T10:26:18;8.93;;;3.43;;
5167;SDS011;2603;48.918;8.980;2023-08-24T10:28:45;5.60;;;3.30;;
5167;SDS011;2603;48.918;8.980;2023-08-24T10:31:12;6.57;;;3.53;;
5167;SDS011;2603;48.918;8.980;2023-08-24T10:33:39;11.57;;;3.27;;
5167;SDS011;2603;48.918;8.980;2023-08-24T10:36:08;8.40;;;3.27;;
5167;SDS011;2603;48.918;8.980;2023-08-24T10:38:39;8.20;;;4.20;;
5167;SDS011;2603;48.918;8.980;2023-08-24T10:41:07;9.00;;;3.27;;
5167;SDS011;2603;48.918;8.980;2023-08-24T10:43:34;9.47;;;3.70;;
5167;SDS011;2603;48.918;8.980;2023-08-24T10:46:01;5.30;;;3.67;;
5167;SDS011;2603;48.918;8.980;2023-08-24T10:48:29;4.37;;;3.13;;
5167;SDS011;2603;48.918;8.980;2023-08-24T10:51:18;5.33;;;3.60;;
5167;SDS011;2603;48.918;8.980;2023-08-24T10:53:51;11.00;;;3.30;;
5167;SDS011;2603;48.918;8.980;2023-08-24T10:56:19;14.10;;;3.30;;
5167;SDS011;2603;48.918;8.980;2023-08-24T10:58:46;8.00;;;3.37;;
5167;SDS011;2603;48.918;8.980;2023-08-24T11:01:16;5.40;;;3.07;;
5167;SDS011;2603;48.918;8.980;2023-08-24T11:03:48;12.47;;;3.83;;
5167;SDS011;2603;48.918;8.980;2023-08-24T11:06:20;13.13;;;3.87;;
5167;SDS011;2603;48.918;8.980;2023-08-24T11:08:48;6.60;;;3.57;;
5167;SDS011;2603;48.918;8.980;2023-08-24T11:11:18;7.53;;;3.20;;
5167;SDS011;2603;48.918;8.980;2023-08-24T11:16:45;9.70;;;4.00;;
5167;SDS011;2603;48.918;8.980;2023-08-24T11:19:12;9.37;;;3.20;;
5167;SDS011;2603;48.918;8.980;2023-08-24T11:21:41;11.30;;;3.90;;
5167;SDS011;2603;48.918;8.980;2023-08-24T11:24:08;6.07;;;3.90;;
5167;SDS011;2603;48.918;8.980;2023-08-24T11:26:38;7.83;;;3.40;;
5167;SDS011;2603;48.918;8.980;2023-08-24T11:29:05;7.63;;;3.80;;
5167;SDS011;2603;48.918;8.980;2023-08-24T11:31:32;6.67;;;3.83;;
5167;SDS011;2603;48.918;8.980;2023-08-24T11:33:59;6.93;;;4.10;;
5167;SDS011;2603;48.918;8.980;2023-08-24T11:36:26;11.50;;;4.53;;
5167;SDS011;2603;48.918;8.980;2023-08-24T11:38:56;6.67;;;3.80;;
5167;SDS011;2603;48.918;8.980;2023-08-24T11:41:23;6.07;;;3.70;;
5167;SDS011;2603;48.918;8.980;2023-08-24T11:43:53;10.03;;;4.27;;
5167;SDS011;2603;48.918;8.980;2023-08-24T11:46:24;7.80;;;3.60;;
5167;SDS011;2603;48.918;8.980;2023-08-24T11:48:52;10.90;;;4.03;;
5167;SDS011;2603;48.918;8.980;2023-08-24T11:51:18;8.20;;;3.60;;
5167;SDS011;2603;48.918;8.980;2023-08-24T11:53:45;7.00;;;4.53;;
5167;SDS011;2603;48.918;8.980;2023-08-24T11:56:14;4.90;;;3.60;;
5167;SDS011;2603;48.918;8.980;2023-08-24T11:58:42;8.13;;;3.67;;
5167;SDS011;2603;48.918;8.980;2023-08-24T12:01:10;6.53;;;4.00;;
5167;SDS011;2603;48.918;8.980;2023-08-24T12:03:38;6.87;;;3.83;;
5167;SDS011;2603;48.918;8.980;2023-08-24T12:06:09;8.70;;;3.97;;
5167;SDS011;2603;48.918;8.980;2023-08-24T12:08:37;12.30;;;4.90;;
5167;SDS011;2603;48.918;8.980;2023-08-24T12:11:03;9.50;;;4.17;;
5167;SDS011;2603;48.918;8.980;2023-08-24T12:13:37;6.13;;;4.20;;
5167;SDS011;2603;48.918;8.980;2023-08-24T12:16:04;9.93;;;3.97;;
5167;SDS011;2603;48.918;8.980;2023-08-24T12:18:31;9.37;;;3.90;;
5167;SDS011;2603;48.918;8.980;2023-08-24T12:21:03;7.70;;;4.43;;
5167;SDS011;2603;48.918;8.980;2023-08-24T12:23:30;7.37;;;3.77;;
5167;SDS011;2603;48.918;8.980;2023-08-24T12:25:57;12.00;;;4.10;;
5167;SDS011;2603;48.918;8.980;2023-08-24T12:28:24;14.27;;;4.10;;
5167;SDS011;2603;48.918;8.980;2023-08-24T12:30:52;7.60;;;4.80;;
5167;SDS011;2603;48.918;8.980;2023-08-24T12:33:26;9.73;;;4.70;;
5167;SDS011;2603;48.918;8.980;2023-08-24T12:35:54;10.93;;;4.90;;
5167;SDS011;2603;48.918;8.980;2023-08-24T12:38:21;12.00;;;3.63;;
5167;SDS011;2603;48.918;8.980;2023-08-24T12:40:49;12.40;;;3.80;;
5167;SDS011;2603;48.918;8.980;2023-08-24T12:43:15;5.30;;;4.23;;
5167;SDS011;2603;48.918;8.980;2023-08-24T12:45:42;13.17;;;4.80;;
5167;SDS011;2603;48.918;8.980;2023-08-24T12:48:10;11.23;;;4.40;;
5167;SDS011;2603;48.918;8.980;2023-08-24T12:50:38;4.93;;;3.97;;
5167;SDS011;2603;48.918;8.980;2023-08-24T12:53:05;10.97;;;4.13;;
5167;SDS011;2603;48.918;8.980;2023-08-24T12:55:32;7.63;;;4.40;;
5167;SDS011;2603;48.918;8.980;2023-08-24T12:57:59;8.33;;;4.43;;
5167;SDS011;2603;48.918;8.980;2023-08-24T13:00:25;14.40;;;4.43;;
5167;SDS011;2603;48.918;8.980;2023-08-24T13:02:53;5.50;;;4.40;;
5167;SDS011;2603;48.918;8.980;2023-08-24T13:05:21;6.00;;;4.40;;
5167;SDS011;2603;48.918;8.980;2023-08-24T13:07:47;6.20;;;4.20;;
5167;SDS011;2603;48.918;8.980;2023-08-24T13:10:14;8.67;;;4.77;;
5167;SDS011;2603;48.918;8.980;2023-08-24T13:12:41;18.60;;;4.87;;
5167;SDS011;2603;48.918;8.980;2023-08-24T13:15:08;9.60;;;4.50;;
5167;SDS011;2603;48.918;8.980;2023-08-24T13:17:36;8.73;;;4.73;;
5167;SDS011;2603;48.918;8.980;2023-08-24T13:20:03;10.27;;;4.50;;
5167;SDS011;2603;48.918;8.980;2023-08-24T13:22:32;7.63;;;4.40;;
5167;SDS011;2603;48.918;8.980;2023-08-24T13:24:59;13.83;;;4.80;;
5167;SDS011;2603;48.918;8.980;2023-08-24T13:27:26;6.40;;;4.40;;
5167;SDS011;2603;48.918;8.980;2023-08-24T13:29:52;10.13;;;5.17;;
5167;SDS011;2603;48.918;8.980;2023-08-24T13:32:21;5.53;;;3.97;;
5167;SDS011;2603;48.918;8.980;2023-08-24T13:34:48;9.30;;;4.47;;
5167;SDS011;2603;48.918;8.980;2023-08-24T13:37:14;11.07;;;4.70;;
5167;SDS011;2603;48.918;8.980;2023-08-24T13:39:42;7.87;;;3.80;;
5167;SDS011;2603;48.918;8.980;2023-08-24T13:42:09;10.10;;;4.73;;
5167;SDS011;2603;48.918;8.980;2023-08-24T13:44:35;11.63;;;4.90;;
5167;SDS011;2603;48.918;8.980;2023-08-24T13:47:03;12.07;;;4.00;;
5167;SDS011;2603;48.918;8.980;2023-08-24T13:49:29;18.07;;;5.03;;
5167;SDS011;2603;48.918;8.980;2023-08-24T13:51:56;9.20;;;4.40;;
5167;SDS011;2603;48.918;8.980;2023-08-24T13:54:23;11.00;;;4.70;;
5167;SDS011;2603;48.918;8.980;2023-08-24T13:56:52;12.80;;;4.43;;
5167;SDS011;2603;48.918;8.980;2023-08-24T13:59:19;10.33;;;5.13;;
5167;SDS011;2603;48.918;8.980;2023-08-24T14:01:46;13.13;;;4.80;;
5167;SDS011;2603;48.918;8.980;2023-08-24T14:04:13;18.03;;;5.50;;
5167;SDS011;2603;48.918;8.980;2023-08-24T14:06:39;9.33;;;5.10;;
5167;SDS011;2603;48.918;8.980;2023-08-24T14:09:06;8.93;;;3.90;;
5167;SDS011;2603;48.918;8.980;2023-08-24T14:11:33;15.40;;;5.60;;
5167;SDS011;2603;48.918;8.980;2023-08-24T14:14:01;10.27;;;4.00;;
5167;SDS011;2603;48.918;8.980;2023-08-24T14:16:27;7.70;;;4.30;;
5167;SDS011;2603;48.918;8.980;2023-08-24T14:18:54;11.20;;;4.33;;
5167;SDS011;2603;48.918;8.980;2023-08-24T14:21:20;9.03;;;4.50;;
5167;SDS011;2603;48.918;8.980;2023-08-24T14:23:48;8.60;;;4.10;;
5167;SDS011;2603;48.918;8.980;2023-08-24T14:26:15;8.93;;;4.27;;
5167;SDS011;2603;48.918;8.980;2023-08-24T14:28:48;17.57;;;4.97;;
5167;SDS011;2603;48.918;8.980;2023-08-24T14:31:17;10.50;;;4.40;;
5167;SDS011;2603;48.918;8.980;2023-08-24T14:33:44;11.30;;;5.00;;
5167;SDS011;2603;48.918;8.980;2023-08-24T14:36:10;10.83;;;4.40;;
5167;SDS011;2603;48.918;8.980;2023-08-24T14:38:38;12.00;;;4.83;;
5167;SDS011;2603;48.918;8.980;2023-08-24T14:41:05;17.43;;;4.50;;
5167;SDS011;2603;48.918;8.980;2023-08-24T14:43:32;15.30;;;4.77;;
5167;SDS011;2603;48.918;8.980;2023-08-24T14:45:59;22.60;;;5.80;;
5167;SDS011;2603;48.918;8.980;2023-08-24T14:48:27;10.90;;;5.00;;
5167;SDS011;2603;48.918;8.980;2023-08-24T14:50:53;23.90;;;6.67;;
5167;SDS011;2603;48.918;8.980;2023-08-24T14:53:20;25.73;;;7.33;;
5167;SDS011;2603;48.918;8.980;2023-08-24T14:55:46;32.13;;;7.07;;
5167;SDS011;2603;48.918;8.980;2023-08-24T14:58:13;23.17;;;6.50;;
5167;SDS011;2603;48.918;8.980;2023-08-24T15:00:39;14.40;;;5.60;;
5167;SDS011;2603;48.918;8.980;2023-08-24T15:03:06;12.27;;;4.03;;
5167;SDS011;2603;48.918;8.980;2023-08-24T15:05:38;11.63;;;3.50;;
5167;SDS011;2603;48.918;8.980;2023-08-24T15:08:10;11.03;;;3.43;;
5167;SDS011;2603;48.918;8.980;2023-08-24T15:10:37;8.40;;;2.90;;
5167;SDS011;2603;48.918;8.980;2023-08-24T15:13:04;11.70;;;3.10;;
5167;SDS011;2603;48.918;8.980;2023-08-24T15:15:31;6.17;;;4.33;;